createdAt,value
2023-04-21T00:02:27.401Z,101387.91
2023-04-21T00:04:56.507Z,101389.38
2023-04-21T00:07:24.883Z,101383.47
2023-04-21T00:09:53.108Z,101382.69
2023-04-21T00:12:21.348Z,101388.09
2023-04-21T00:14:51.048Z,101383.47
2023-04-21T00:17:19.234Z,101383.03
2023-04-21T00:19:47.757Z,101387.94
2023-04-21T00:22:15.966Z,101386.03
2023-04-21T00:24:44.277Z,101389.84
2023-04-21T00:27:13.311Z,101385.13
2023-04-21T00:29:41.533Z,101394.31
2023-04-21T00:32:11.446Z,101384.31
2023-04-21T00:34:39.605Z,101380.03
2023-04-21T00:37:07.858Z,101382.28
2023-04-21T00:39:36.081Z,101376.38
2023-04-21T00:42:04.247Z,101369.41
2023-04-21T00:44:32.436Z,101369.75
2023-04-21T00:47:00.886Z,101364.69
2023-04-21T00:49:30.533Z,101359.94
2023-04-21T00:51:59.696Z,101367.53
2023-04-21T00:54:30.685Z,101354.38
2023-04-21T00:57:00.525Z,101352.66
2023-04-21T00:59:29.922Z,101360.25
2023-04-21T01:01:58.316Z,101361.69
2023-04-21T01:04:26.765Z,101358.22
2023-04-21T01:06:56.805Z,101350.78
2023-04-21T01:09:24.985Z,101348.06
2023-04-21T01:12:04.182Z,101336.81
2023-04-21T01:14:32.589Z,101343.00
2023-04-21T01:17:01.251Z,101339.53
2023-04-21T01:19:35.781Z,101337.94
2023-04-21T01:22:05.337Z,101343.34
2023-04-21T01:24:42.054Z,101349.06
2023-04-21T01:27:12.197Z,101339.84
2023-04-21T01:29:41.877Z,101344.44
2023-04-21T01:32:13.984Z,101333.66
2023-04-21T01:34:43.257Z,101337.94
2023-04-21T01:37:15.759Z,101328.28
2023-04-21T01:39:46.657Z,101326.03
2023-04-21T01:42:15.479Z,101336.03
2023-04-21T01:44:43.668Z,101320.66
2023-04-21T01:47:12.352Z,101323.34
2023-04-21T01:49:40.723Z,101322.56
2023-04-21T01:52:09.268Z,101317.97
2023-04-21T01:54:38.931Z,101320.66
2023-04-21T01:57:07.469Z,101324.47
2023-04-21T01:59:35.760Z,101311.78
2023-04-21T02:02:04.218Z,101315.59
2023-04-21T02:04:32.780Z,101319.06
2023-04-21T02:07:01.238Z,101315.25
2023-04-21T02:09:29.557Z,101317.16
2023-04-21T02:11:59.280Z,101317.59
2023-04-21T02:14:27.794Z,101318.09
2023-04-21T02:16:57.773Z,101318.88
2023-04-21T02:19:26.005Z,101329.66
2023-04-21T02:21:54.182Z,101324.28
2023-04-21T02:24:25.684Z,101324.75
2023-04-21T02:26:53.855Z,101311.25
2023-04-21T02:29:23.330Z,101309.34
2023-04-21T02:32:01.236Z,101304.75
2023-04-21T02:34:33.694Z,101311.72
2023-04-21T02:37:02.501Z,101324.13
2023-04-21T02:39:30.720Z,101325.69
2023-04-21T02:41:59.031Z,101304.94
2023-04-21T02:44:28.674Z,101309.16
2023-04-21T02:46:56.898Z,101309.16
2023-04-21T02:49:25.101Z,101304.56
2023-04-21T02:51:54.955Z,101299.63
2023-04-21T02:54:23.160Z,101305.03
2023-04-21T02:56:51.370Z,101298.84
2023-04-21T02:59:19.813Z,101307.25
2023-04-21T03:01:49.832Z,101299.53
2023-04-21T03:04:19.777Z,101301.75
2023-04-21T03:06:48.128Z,101300.16
2023-04-21T03:09:16.309Z,101303.19
2023-04-21T03:11:44.450Z,101295.09
2023-04-21T03:14:12.643Z,101306.19
2023-04-21T03:16:40.904Z,101297.31
2023-04-21T03:19:10.487Z,101296.84
2023-04-21T03:21:39.997Z,101292.91
2023-04-21T03:24:08.735Z,101291.66
2023-04-21T03:26:36.918Z,101290.38
2023-04-21T03:29:05.169Z,101284.50
2023-04-21T03:31:33.491Z,101294.06
2023-04-21T03:34:01.688Z,101287.72
2023-04-21T03:36:31.358Z,101289.16
2023-04-21T03:39:09.406Z,101295.16
2023-04-21T03:41:47.210Z,101291.72
2023-04-21T03:44:15.402Z,101295.06
2023-04-21T03:46:43.740Z,101291.84
2023-04-21T03:49:11.969Z,101291.06
2023-04-21T03:51:41.561Z,101292.50
2023-04-21T03:54:09.744Z,101287.75
2023-04-21T03:56:37.923Z,101300.78
2023-04-21T03:59:06.667Z,101291.44
2023-04-21T04:01:35.772Z,101293.63
2023-04-21T04:04:04.352Z,101295.84
2023-04-21T04:06:33.280Z,101300.81
2023-04-21T04:09:04.667Z,101301.09
2023-04-21T04:11:33.094Z,101290.97
2023-04-21T04:14:01.467Z,101301.41
2023-04-21T04:16:29.966Z,101296.34
2023-04-21T04:18:58.299Z,101300.16
2023-04-21T04:21:27.560Z,101294.78
2023-04-21T04:23:55.842Z,101310.94
2023-04-21T04:26:25.824Z,101302.84
2023-04-21T04:28:56.277Z,101307.13
2023-04-21T04:31:25.504Z,101303.31
2023-04-21T04:33:55.546Z,101300.63
2023-04-21T04:36:24.156Z,101299.50
2023-04-21T04:38:52.458Z,101299.97
2023-04-21T04:41:20.946Z,101290.81
2023-04-21T04:43:51.120Z,101297.75
2023-04-21T04:46:20.477Z,101304.41
2023-04-21T04:48:49.284Z,101296.50
2023-04-21T04:51:17.509Z,101298.06
2023-04-21T04:53:45.756Z,101305.03
2023-04-21T04:56:13.931Z,101309.31
2023-04-21T04:58:42.092Z,101299.34
2023-04-21T05:01:15.946Z,101307.09
2023-04-21T05:03:45.502Z,101307.09
2023-04-21T05:06:14.362Z,101309.78
2023-04-21T05:08:42.813Z,101310.56
2023-04-21T05:11:11.045Z,101313.28
2023-04-21T05:13:40.217Z,101312.94
2023-04-21T05:16:11.369Z,101314.53
2023-04-21T05:18:41.104Z,101306.91
2023-04-21T05:21:09.274Z,101299.78
2023-04-21T05:23:37.466Z,101309.28
2023-04-21T05:26:05.881Z,101310.69
2023-04-21T05:28:35.823Z,101317.16
2023-04-21T05:31:04.132Z,101308.56
2023-04-21T05:33:32.322Z,101310.66
2023-04-21T05:36:01.950Z,101317.63
2023-04-21T05:38:30.105Z,101318.06
2023-04-21T05:40:58.717Z,101317.44
2023-04-21T05:43:27.160Z,101320.59
2023-04-21T05:45:55.542Z,101318.69
2023-04-21T05:48:24.466Z,101312.97
2023-04-21T05:50:52.746Z,101313.75
2023-04-21T05:53:23.446Z,101310.28
2023-04-21T05:55:51.850Z,101308.34
2023-04-21T05:58:20.041Z,101308.81
2023-04-21T06:00:49.237Z,101318.50
2023-04-21T06:03:17.728Z,101325.47
2023-04-21T06:05:47.081Z,101320.69
2023-04-21T06:08:15.328Z,101318.28
2023-04-21T06:10:44.914Z,101322.03
2023-04-21T06:13:13.084Z,101315.50
2023-04-21T06:15:41.297Z,101325.09
2023-04-21T06:18:09.567Z,101324.25
2023-04-21T06:20:37.793Z,101326.13
2023-04-21T06:23:06.274Z,101320.22
2023-04-21T06:25:34.443Z,101322.06
2023-04-21T06:28:04.038Z,101320.09
2023-04-21T06:30:32.250Z,101323.50
2023-04-21T06:33:00.811Z,101323.13
2023-04-21T06:35:29.159Z,101334.28
2023-04-21T06:37:57.522Z,101331.53
2023-04-21T06:40:25.792Z,101333.34
2023-04-21T06:42:53.962Z,101321.31
2023-04-21T06:45:23.826Z,101330.00
2023-04-21T06:47:52.069Z,101322.78
2023-04-21T06:50:20.510Z,101329.25
2023-04-21T06:52:48.727Z,101329.81
2023-04-21T06:55:17.096Z,101331.63
2023-04-21T06:57:45.632Z,101343.34
2023-04-21T07:00:15.582Z,101330.25
2023-04-21T07:02:45.237Z,101331.53
2023-04-21T07:05:13.471Z,101328.91
2023-04-21T07:07:41.867Z,101332.22
2023-04-21T07:10:11.213Z,101326.22
2023-04-21T07:12:39.524Z,101319.13
2023-04-21T07:15:10.278Z,101309.00
2023-04-21T07:17:38.551Z,101303.78
2023-04-21T07:20:10.229Z,101306.72
2023-04-21T07:22:38.448Z,101306.56
2023-04-21T07:25:08.077Z,101316.16
2023-04-21T07:27:37.087Z,101299.69
2023-04-21T07:30:06.173Z,101303.47
2023-04-21T07:32:35.043Z,101310.44
2023-04-21T07:35:03.442Z,101310.38
2023-04-21T07:37:33.016Z,101305.25
2023-04-21T07:40:01.461Z,101307.50
2023-04-21T07:42:29.733Z,101308.22
2023-04-21T07:44:57.947Z,101306.91
2023-04-21T07:47:26.336Z,101316.00
2023-04-21T07:49:54.702Z,101307.00
2023-04-21T07:52:22.911Z,101313.13
2023-04-21T07:54:52.940Z,101315.69
2023-04-21T07:57:21.138Z,101313.13
2023-04-21T07:59:49.364Z,101316.88
2023-04-21T08:02:17.645Z,101321.06
2023-04-21T08:04:45.935Z,101316.22
2023-04-21T08:07:15.953Z,101314.44
2023-04-21T08:09:44.350Z,101325.13
2023-04-21T08:12:14.004Z,101322.94
2023-04-21T08:14:42.566Z,101309.09
2023-04-21T08:17:10.857Z,101302.63
2023-04-21T08:19:39.098Z,101305.78
2023-04-21T08:22:07.388Z,101309.69
2023-04-21T08:24:35.595Z,101312.13
2023-04-21T08:27:03.835Z,101316.50
2023-04-21T08:29:33.478Z,101313.69
2023-04-21T08:32:01.831Z,101308.41
2023-04-21T08:34:30.348Z,101308.25
2023-04-21T08:36:58.775Z,101312.56
2023-04-21T08:39:27.627Z,101316.41
2023-04-21T08:41:57.551Z,101307.84
2023-04-21T08:44:25.855Z,101304.59
2023-04-21T08:46:57.970Z,101301.38
2023-04-21T08:49:30.900Z,101300.72
2023-04-21T08:52:01.240Z,101307.75
2023-04-21T08:54:30.076Z,101309.25
2023-04-21T08:57:07.966Z,101310.56
2023-04-21T08:59:40.429Z,101302.31
2023-04-21T09:02:12.485Z,101295.78
2023-04-21T09:04:41.939Z,101306.25
2023-04-21T09:07:11.181Z,101308.97
2023-04-21T09:09:56.027Z,101295.78
2023-04-21T09:12:24.994Z,101306.44
2023-04-21T09:14:53.208Z,101308.50
2023-04-21T09:17:32.442Z,101308.66
2023-04-21T09:20:16.410Z,101302.25
2023-04-21T09:22:45.554Z,101311.31
2023-04-21T09:25:18.841Z,101308.13
2023-04-21T09:27:48.103Z,101310.16
2023-04-21T09:30:20.652Z,101306.81
2023-04-21T09:32:51.180Z,101310.03
2023-04-21T09:35:19.437Z,101313.00
2023-04-21T09:37:47.834Z,101297.13
2023-04-21T09:40:19.207Z,101308.09
2023-04-21T09:42:48.097Z,101299.47
2023-04-21T09:45:32.870Z,101297.13
2023-04-21T09:48:10.884Z,101295.81
2023-04-21T09:51:22.070Z,101301.75
2023-04-21T09:53:30.745Z,101296.13
2023-04-21T09:56:00.879Z,101292.31
2023-04-21T09:58:35.245Z,101300.09
2023-04-21T10:01:04.889Z,101296.91
2023-04-21T10:03:35.209Z,101289.97
2023-04-21T10:06:04.497Z,101296.47
2023-04-21T10:08:33.338Z,101292.91
2023-04-21T10:11:02.278Z,101290.03
2023-04-21T10:13:31.031Z,101286.34
2023-04-21T10:16:05.081Z,101283.69
2023-04-21T10:18:38.295Z,101287.28
2023-04-21T10:21:10.366Z,101277.09
2023-04-21T10:23:43.332Z,101287.22
2023-04-21T10:26:18.079Z,101277.72
2023-04-21T10:28:49.709Z,101279.94
2023-04-21T10:31:27.073Z,101268.09
2023-04-21T10:34:37.092Z,101252.19
2023-04-21T10:37:19.733Z,101249.72
2023-04-21T10:39:54.616Z,101252.59
2023-04-21T10:42:37.802Z,101245.34
2023-04-21T10:45:11.888Z,101243.53
2023-04-21T10:47:51.357Z,101233.81
2023-04-21T10:50:25.485Z,101222.94
2023-04-21T10:52:57.746Z,101225.28
2023-04-21T10:55:30.166Z,101215.13
2023-04-21T10:57:59.329Z,101212.31
2023-04-21T11:00:27.789Z,101206.81
2023-04-21T11:03:02.790Z,101205.63
2023-04-21T11:05:38.717Z,101207.97
2023-04-21T11:08:13.935Z,101204.53
2023-04-21T11:10:53.725Z,101190.09
2023-04-21T11:13:27.376Z,101186.25
2023-04-21T11:16:01.284Z,101192.50
2023-04-21T11:18:40.196Z,101183.13
2023-04-21T11:21:12.174Z,101182.31
2023-04-21T11:23:49.930Z,101174.91
2023-04-21T11:26:18.648Z,101178.84
2023-04-21T11:28:50.848Z,101172.19
2023-04-21T11:31:19.172Z,101156.97
2023-04-21T11:33:47.501Z,101159.28
2023-04-21T11:36:17.097Z,101161.25
2023-04-21T11:38:45.324Z,101148.75
2023-04-21T11:41:13.515Z,101152.69
2023-04-21T11:43:41.749Z,101158.88
2023-04-21T11:46:19.796Z,101157.31
2023-04-21T11:48:48.682Z,101152.63
2023-04-21T11:51:21.964Z,101148.72
2023-04-21T11:53:50.925Z,101138.56
2023-04-21T11:56:21.706Z,101136.22
2023-04-21T11:58:52.714Z,101135.41
2023-04-21T12:01:22.159Z,101131.09
2023-04-21T12:03:55.106Z,101117.41
2023-04-21T12:06:29.231Z,101122.44
2023-04-21T12:09:01.008Z,101116.16
2023-04-21T12:11:30.632Z,101100.88
2023-04-21T12:13:59.565Z,101104.31
2023-04-21T12:16:29.109Z,101104.72
2023-04-21T12:18:58.886Z,101098.47
2023-04-21T12:21:31.699Z,101095.31
2023-04-21T12:23:59.961Z,101091.34
2023-04-21T12:26:28.352Z,101080.00
2023-04-21T12:28:56.591Z,101092.53
2023-04-21T12:31:24.885Z,101081.22
2023-04-21T12:33:53.130Z,101083.94
2023-04-21T12:36:21.528Z,101074.88
2023-04-21T12:38:51.191Z,101070.97
2023-04-21T12:41:19.401Z,101077.22
2023-04-21T12:43:47.603Z,101067.81
2023-04-21T12:46:16.210Z,101063.91
2023-04-21T12:48:44.526Z,101060.34
2023-04-21T12:51:12.754Z,101058.38
2023-04-21T12:53:40.985Z,101048.19
2023-04-21T12:56:10.731Z,101059.06
2023-04-21T12:58:39.002Z,101043.34
2023-04-21T13:01:07.462Z,101041.66
2023-04-21T13:03:35.970Z,101055.72
2023-04-21T13:06:04.461Z,101052.09
2023-04-21T13:08:32.672Z,101055.16
2023-04-21T13:11:01.115Z,101052.41
2023-04-21T13:13:30.705Z,101039.53
2023-04-21T13:15:59.124Z,101050.81
2023-04-21T13:18:27.346Z,101039.03
2023-04-21T13:20:55.595Z,101033.88
2023-04-21T13:23:23.852Z,101025.22
2023-04-21T13:25:52.906Z,101023.25
2023-04-21T13:28:21.691Z,101027.16
2023-04-21T13:30:52.459Z,101025.50
2023-04-21T13:33:21.461Z,101025.66
2023-04-21T13:35:50.039Z,101024.94
2023-04-21T13:38:18.729Z,101019.16
2023-04-21T13:40:48.885Z,101015.66
2023-04-21T13:43:17.219Z,101010.16
2023-04-21T13:45:46.132Z,101012.88
2023-04-21T13:48:15.909Z,101000.25
2023-04-21T13:50:44.181Z,100998.63
2023-04-21T13:53:14.051Z,100987.63
2023-04-21T13:55:42.988Z,100984.13
2023-04-21T13:58:11.964Z,100984.25
2023-04-21T14:00:40.345Z,100976.50
2023-04-21T14:03:08.828Z,100972.69
2023-04-21T14:05:38.984Z,100975.94
2023-04-21T14:08:07.670Z,100955.69
2023-04-21T14:10:35.894Z,100956.47
2023-04-21T14:13:04.892Z,100951.69
2023-04-21T14:15:33.624Z,100948.56
2023-04-21T14:18:01.939Z,100942.22
2023-04-21T14:20:30.358Z,100934.75
2023-04-21T14:22:59.991Z,100930.50
2023-04-21T14:25:28.658Z,100929.28
2023-04-21T14:27:56.883Z,100923.34
2023-04-21T14:30:25.157Z,100918.59
2023-04-21T14:32:53.426Z,100924.69
2023-04-21T14:35:21.808Z,100939.41
2023-04-21T14:37:50.030Z,100932.25
2023-04-21T14:40:19.904Z,100927.88
2023-04-21T14:42:48.410Z,100922.84
2023-04-21T14:45:16.908Z,100925.22
2023-04-21T14:47:45.852Z,100926.88
2023-04-21T14:50:14.215Z,100909.63
2023-04-21T14:52:42.681Z,100915.91
2023-04-21T14:55:11.665Z,100906.13
2023-04-21T14:57:41.265Z,100908.81
2023-04-21T15:00:11.528Z,100908.41
2023-04-21T15:02:40.524Z,100890.00
2023-04-21T15:05:10.101Z,100889.25
2023-04-21T15:07:40.335Z,100900.00
2023-04-21T15:10:11.161Z,100891.16
2023-04-21T15:12:41.852Z,100886.19
2023-04-21T15:15:11.419Z,100878.41
2023-04-21T15:17:39.672Z,100869.03
2023-04-21T15:20:10.827Z,100872.56
2023-04-21T15:22:39.233Z,100865.50
2023-04-21T15:25:08.267Z,100874.56
2023-04-21T15:27:36.781Z,100870.69
2023-04-21T15:30:07.917Z,100857.44
2023-04-21T15:32:36.175Z,100857.91
2023-04-21T15:35:04.671Z,100855.97
2023-04-21T15:37:32.984Z,100852.06
2023-04-21T15:40:01.288Z,100851.66
2023-04-21T15:42:29.599Z,100840.28
2023-04-21T15:44:58.426Z,100843.44
2023-04-21T15:47:28.129Z,100842.72
2023-04-21T15:49:56.413Z,100839.97
2023-04-21T15:52:24.701Z,100838.47
2023-04-21T15:54:52.940Z,100833.84
2023-04-21T15:57:21.617Z,100836.66
2023-04-21T15:59:49.962Z,100819.94
2023-04-21T16:02:18.239Z,100830.47
2023-04-21T16:04:48.222Z,100819.53
2023-04-21T16:07:16.638Z,100814.91
2023-04-21T16:09:44.899Z,100817.28
2023-04-21T16:12:13.214Z,100805.94
2023-04-21T16:14:54.431Z,100820.47
2023-04-21T16:17:27.659Z,100825.59
2023-04-21T16:19:57.441Z,100831.88
2023-04-21T16:22:25.803Z,100820.59
2023-04-21T16:24:54.409Z,100827.22
2023-04-21T16:27:22.710Z,100825.72
2023-04-21T16:29:50.980Z,100840.59
2023-04-21T16:32:19.358Z,100871.91
2023-04-21T16:34:47.674Z,100958.53
2023-04-21T16:37:17.434Z,101002.69
2023-04-21T16:39:46.581Z,101004.66
2023-04-21T16:42:14.984Z,100923.53
2023-04-21T16:44:43.197Z,100913.97
2023-04-21T16:47:11.522Z,100877.94
2023-04-21T16:49:39.770Z,100861.13
2023-04-21T16:52:08.055Z,100862.22
2023-04-21T16:54:37.933Z,100862.31
2023-04-21T16:57:06.794Z,100847.84
2023-04-21T16:59:35.071Z,100857.41
2023-04-21T17:02:03.356Z,100837.91
2023-04-21T17:04:31.754Z,100827.78
2023-04-21T17:06:59.991Z,100821.09
2023-04-21T17:09:28.226Z,100827.25
2023-04-21T17:11:57.821Z,100828.75
2023-04-21T17:14:26.192Z,100821.72
2023-04-21T17:16:55.660Z,100819.66
2023-04-21T17:19:24.357Z,100818.88
2023-04-21T17:21:52.626Z,100824.59
2023-04-21T17:24:20.971Z,100825.63
2023-04-21T17:26:49.271Z,100816.91
2023-04-21T17:29:18.839Z,100812.78
2023-04-21T17:31:47.067Z,100813.84
2023-04-21T17:34:15.318Z,100811.16
2023-04-21T17:36:44.626Z,100792.63
2023-04-21T17:39:14.111Z,100779.50
2023-04-21T17:41:42.668Z,100786.47
2023-04-21T17:44:10.922Z,100771.78
2023-04-21T17:46:40.802Z,100772.22
2023-04-21T17:49:09.213Z,100770.28
2023-04-21T17:51:37.532Z,100776.13
2023-04-21T17:54:05.959Z,100763.38
2023-04-21T17:56:34.222Z,100766.06
2023-04-21T17:59:02.937Z,100767.66
2023-04-21T18:01:31.325Z,100772.72
2023-04-21T18:04:01.741Z,100782.75
2023-04-21T18:06:30.489Z,100782.75
2023-04-21T18:08:59.384Z,100780.03
2023-04-21T18:11:27.681Z,100786.59
2023-04-21T18:13:55.873Z,100794.41
2023-04-21T18:16:24.279Z,100794.41
2023-04-21T18:18:52.771Z,100793.59
2023-04-21T18:21:22.601Z,100797.91
2023-04-21T18:23:50.957Z,100785.09
2023-04-21T18:26:19.250Z,100785.09
2023-04-21T18:28:47.627Z,100785.09
2023-04-21T18:31:16.064Z,100779.31
2023-04-21T18:33:44.364Z,100774.34
2023-04-21T18:36:12.613Z,100764.28
2023-04-21T18:38:42.213Z,100780.19
2023-04-21T18:41:10.727Z,100777.50
2023-04-21T18:43:40.589Z,100778.66
2023-04-21T18:46:09.074Z,100784.03
2023-04-21T18:48:37.488Z,100770.34
2023-04-21T18:51:06.021Z,100780.53
2023-04-21T18:53:34.510Z,100776.97
2023-04-21T18:56:04.320Z,100775.84
2023-04-21T18:58:32.789Z,100793.16
2023-04-21T19:01:01.106Z,100793.88
2023-04-21T19:03:29.657Z,100790.41
2023-04-21T19:05:57.978Z,100791.53
2023-04-21T19:08:40.784Z,100795.06
2023-04-21T19:11:14.342Z,100795.06
2023-04-21T19:13:42.730Z,100818.97
2023-04-21T19:16:12.937Z,100824.75
2023-04-21T19:18:41.652Z,100817.84
2023-04-21T19:21:12.848Z,100824.47
2023-04-21T19:23:41.652Z,100819.84
2023-04-21T19:26:12.006Z,100840.59
2023-04-21T19:28:41.119Z,100833.41
2023-04-21T19:31:10.029Z,100860.34
2023-04-21T19:33:38.244Z,100856.34
2023-04-21T19:36:07.567Z,100884.09
2023-04-21T19:38:36.212Z,100881.75
2023-04-21T19:41:04.400Z,100880.97
2023-04-21T19:43:34.123Z,100861.59
2023-04-21T19:46:02.508Z,100879.38
2023-04-21T19:48:31.400Z,100884.81
2023-04-21T19:50:59.690Z,100876.34
2023-04-21T19:53:28.083Z,100873.28
2023-04-21T19:55:56.311Z,100865.59
2023-04-21T19:58:38.977Z,100863.28
2023-04-21T20:01:10.107Z,100862.16
2023-04-21T20:03:38.682Z,100858.31
2023-04-21T20:06:07.482Z,100842.53
2023-04-21T20:08:36.635Z,100842.94
2023-04-21T20:11:04.984Z,100836.38
2023-04-21T20:13:33.244Z,100848.75
2023-04-21T20:16:02.142Z,100852.72
2023-04-21T20:18:33.670Z,100869.38
2023-04-21T20:21:02.069Z,100891.47
2023-04-21T20:23:30.263Z,100905.78
2023-04-21T20:25:58.560Z,100909.28
2023-04-21T20:28:27.609Z,100906.16
2023-04-21T20:30:56.961Z,100901.38
2023-04-21T20:33:25.227Z,100899.66
2023-04-21T20:35:55.426Z,100904.63
2023-04-21T20:38:24.694Z,100903.06
2023-04-21T20:40:53.847Z,100888.72
2023-04-21T20:43:22.527Z,100888.38
2023-04-21T20:45:50.813Z,100883.81
2023-04-21T20:48:19.153Z,100884.25
2023-04-21T20:50:49.845Z,100876.59
2023-04-21T20:53:26.811Z,100869.66
2023-04-21T20:55:55.325Z,100858.06
2023-04-21T20:58:24.507Z,100862.72
2023-04-21T21:00:52.932Z,100866.56
2023-04-21T21:03:21.764Z,100858.13
2023-04-21T21:05:50.692Z,100853.91
2023-04-21T21:08:20.322Z,100855.84
2023-04-21T21:10:49.667Z,100858.91
2023-04-21T21:13:17.949Z,100840.28
2023-04-21T21:15:46.741Z,100842.22
2023-04-21T21:18:15.041Z,100851.06
2023-04-21T21:20:43.304Z,100843.31
2023-04-21T21:23:11.715Z,100846.78
2023-04-21T21:25:41.318Z,100839.72
2023-04-21T21:28:09.588Z,100843.94
2023-04-21T21:30:37.911Z,100833.78
2023-04-21T21:33:06.206Z,100827.53
2023-04-21T21:35:34.433Z,100827.81
2023-04-21T21:38:02.698Z,100825.81
2023-04-21T21:40:30.980Z,100817.53
2023-04-21T21:43:00.846Z,100814.72
2023-04-21T21:45:29.345Z,100820.44
2023-04-21T21:47:57.733Z,100820.28
2023-04-21T21:50:25.948Z,100810.50
2023-04-21T21:52:54.216Z,100807.28
2023-04-21T21:55:23.168Z,100793.66
2023-04-21T21:57:51.576Z,100802.84
2023-04-21T22:00:21.156Z,100800.03
2023-04-21T22:02:49.373Z,100808.09
2023-04-21T22:05:17.760Z,100805.72
2023-04-21T22:07:45.998Z,100798.31
2023-04-21T22:10:14.241Z,100801.72
2023-04-21T22:12:42.547Z,100805.81
2023-04-21T22:15:12.147Z,100803.41
2023-04-21T22:17:43.670Z,100808.34
2023-04-21T22:20:12.986Z,100817.59
2023-04-21T22:22:41.172Z,100828.00
2023-04-21T22:25:10.858Z,100831.84
2023-04-21T22:27:39.124Z,100834.09
2023-04-21T22:30:09.256Z,100825.09
2023-04-21T22:32:37.604Z,100830.84
2023-04-21T22:35:07.795Z,100820.31
2023-04-21T22:37:36.023Z,100822.16
2023-04-21T22:40:04.979Z,100823.50
2023-04-21T22:42:33.492Z,100823.41
2023-04-21T22:45:04.002Z,100820.19
2023-04-21T22:47:32.461Z,100821.66
2023-04-21T22:50:00.877Z,100822.69
2023-04-21T22:52:30.431Z,100815.97
2023-04-21T22:54:58.606Z,100823.44
2023-04-21T22:57:27.109Z,100813.25
2023-04-21T22:59:55.363Z,100815.38
2023-04-21T23:02:23.724Z,100821.50
2023-04-21T23:04:51.932Z,100817.13
2023-04-21T23:07:20.408Z,100817.03
2023-04-21T23:09:50.886Z,100812.66
2023-04-21T23:12:19.113Z,100815.59
2023-04-21T23:14:48.289Z,100822.78
2023-04-21T23:17:16.577Z,100823.13
2023-04-21T23:19:44.802Z,100817.19
2023-04-21T23:22:13.208Z,100823.59
2023-04-21T23:24:41.385Z,100827.34
2023-04-21T23:27:10.977Z,100814.31
2023-04-21T23:29:39.328Z,100827.59
2023-04-21T23:32:08.020Z,100827.41
2023-04-21T23:34:36.694Z,100831.09
2023-04-21T23:37:04.878Z,100814.34
2023-04-21T23:39:33.170Z,100823.13
2023-04-21T23:42:02.491Z,100818.38
2023-04-21T23:44:32.118Z,100821.41
2023-04-21T23:47:00.301Z,100812.91
2023-04-21T23:49:28.482Z,100805.13
2023-04-21T23:51:56.805Z,100808.94
2023-04-21T23:54:25.059Z,100801.97
2023-04-21T23:56:53.406Z,100807.38
2023-04-21T23:59:22.623Z,100806.59
